sensor_id;sensor_type;location;lat;lon;timestamp;P1;durP1;ratioP1;P2;durP2;ratioP2
54787;SDS011;59598;48.112;16.280;2023-08-21T00:01:11;6.00;;;5.40;;
54787;SDS011;59598;48.112;16.280;2023-08-21T00:03:45;6.40;;;5.35;;
54787;SDS011;59598;48.112;16.280;2023-08-21T00:06:25;9.27;;;5.20;;
54787;SDS011;59598;48.112;16.280;2023-08-21T00:08:58;10.70;;;6.07;;
54787;SDS011;59598;48.112;16.280;2023-08-21T00:11:32;8.13;;;5.53;;
54787;SDS011;59598;48.112;16.280;2023-08-21T00:14:06;6.13;;;5.07;;
54787;SDS011;59598;48.112;16.280;2023-08-21T00:16:43;7.45;;;5.57;;
54787;SDS011;59598;48.112;16.280;2023-08-21T00:19:18;7.00;;;5.50;;
54787;SDS011;59598;48.112;16.280;2023-08-21T00:21:53;6.57;;;5.28;;
54787;SDS011;59598;48.112;16.280;2023-08-21T00:24:27;7.18;;;5.40;;
54787;SDS011;59598;48.112;16.280;2023-08-21T00:27:01;6.63;;;5.30;;
54787;SDS011;59598;48.112;16.280;2023-08-21T00:29:36;6.60;;;4.60;;
54787;SDS011;59598;48.112;16.280;2023-08-21T00:32:10;8.43;;;5.10;;
54787;SDS011;59598;48.112;16.280;2023-08-21T00:34:45;5.50;;;4.22;;
54787;SDS011;59598;48.112;16.280;2023-08-21T00:37:20;6.55;;;4.47;;
54787;SDS011;59598;48.112;16.280;2023-08-21T00:39:54;6.38;;;4.60;;
54787;SDS011;59598;48.112;16.280;2023-08-21T00:42:27;8.20;;;4.75;;
54787;SDS011;59598;48.112;16.280;2023-08-21T00:45:08;5.60;;;3.97;;
54787;SDS011;59598;48.112;16.280;2023-08-21T00:47:39;6.03;;;4.80;;
54787;SDS011;59598;48.112;16.280;2023-08-21T00:50:12;5.60;;;4.88;;
54787;SDS011;59598;48.112;16.280;2023-08-21T00:52:47;6.72;;;4.72;;
54787;SDS011;59598;48.112;16.280;2023-08-21T00:55:20;7.95;;;4.88;;
54787;SDS011;59598;48.112;16.280;2023-08-21T00:57:51;6.53;;;5.03;;
54787;SDS011;59598;48.112;16.280;2023-08-21T01:00:25;6.88;;;5.10;;
54787;SDS011;59598;48.112;16.280;2023-08-21T01:03:01;5.40;;;4.68;;
54787;SDS011;59598;48.112;16.280;2023-08-21T01:05:34;8.18;;;5.90;;
54787;SDS011;59598;48.112;16.280;2023-08-21T01:11:26;7.68;;;5.18;;
54787;SDS011;59598;48.112;16.280;2023-08-21T01:14:24;6.30;;;5.50;;
54787;SDS011;59598;48.112;16.280;2023-08-21T01:17:07;7.00;;;5.47;;
54787;SDS011;59598;48.112;16.280;2023-08-21T01:19:44;6.65;;;5.43;;
54787;SDS011;59598;48.112;16.280;2023-08-21T01:22:19;7.63;;;5.95;;
54787;SDS011;59598;48.112;16.280;2023-08-21T01:24:56;6.43;;;5.18;;
54787;SDS011;59598;48.112;16.280;2023-08-21T01:27:31;7.22;;;5.40;;
54787;SDS011;59598;48.112;16.280;2023-08-21T01:30:06;7.53;;;5.68;;
54787;SDS011;59598;48.112;16.280;2023-08-21T01:35:24;5.30;;;4.80;;
54787;SDS011;59598;48.112;16.280;2023-08-21T01:38:02;7.50;;;5.60;;
54787;SDS011;59598;48.112;16.280;2023-08-21T01:40:36;7.57;;;6.00;;
54787;SDS011;59598;48.112;16.280;2023-08-21T01:43:09;7.05;;;5.75;;
54787;SDS011;59598;48.112;16.280;2023-08-21T01:45:46;7.15;;;5.63;;
54787;SDS011;59598;48.112;16.280;2023-08-21T01:48:22;7.15;;;5.90;;
54787;SDS011;59598;48.112;16.280;2023-08-21T01:50:54;8.57;;;5.50;;
54787;SDS011;59598;48.112;16.280;2023-08-21T01:53:28;7.10;;;5.45;;
54787;SDS011;59598;48.112;16.280;2023-08-21T01:56:02;6.22;;;5.18;;
54787;SDS011;59598;48.112;16.280;2023-08-21T01:58:39;8.32;;;5.28;;
54787;SDS011;59598;48.112;16.280;2023-08-21T02:01:14;8.15;;;5.45;;
54787;SDS011;59598;48.112;16.280;2023-08-21T02:03:46;7.88;;;5.35;;
54787;SDS011;59598;48.112;16.280;2023-08-21T02:06:23;7.75;;;5.50;;
54787;SDS011;59598;48.112;16.280;2023-08-21T02:08:54;6.88;;;5.80;;
54787;SDS011;59598;48.112;16.280;2023-08-21T02:11:27;6.72;;;5.13;;
54787;SDS011;59598;48.112;16.280;2023-08-21T02:13:58;7.20;;;5.85;;
54787;SDS011;59598;48.112;16.280;2023-08-21T02:16:30;8.02;;;6.00;;
54787;SDS011;59598;48.112;16.280;2023-08-21T02:19:06;8.80;;;6.18;;
54787;SDS011;59598;48.112;16.280;2023-08-21T02:21:42;9.18;;;5.97;;
54787;SDS011;59598;48.112;16.280;2023-08-21T02:24:13;7.80;;;5.70;;
54787;SDS011;59598;48.112;16.280;2023-08-21T02:26:48;7.97;;;6.13;;
54787;SDS011;59598;48.112;16.280;2023-08-21T02:29:22;8.93;;;6.00;;
54787;SDS011;59598;48.112;16.280;2023-08-21T02:32:01;7.20;;;5.55;;
54787;SDS011;59598;48.112;16.280;2023-08-21T02:34:40;8.30;;;6.15;;
54787;SDS011;59598;48.112;16.280;2023-08-21T02:37:16;8.30;;;5.47;;
54787;SDS011;59598;48.112;16.280;2023-08-21T02:39:53;7.30;;;5.60;;
54787;SDS011;59598;48.112;16.280;2023-08-21T02:42:25;7.28;;;5.75;;
54787;SDS011;59598;48.112;16.280;2023-08-21T02:45:03;7.43;;;5.45;;
54787;SDS011;59598;48.112;16.280;2023-08-21T02:47:38;7.93;;;5.63;;
54787;SDS011;59598;48.112;16.280;2023-08-21T02:50:11;8.23;;;5.85;;
54787;SDS011;59598;48.112;16.280;2023-08-21T02:53:05;6.43;;;5.32;;
54787;SDS011;59598;48.112;16.280;2023-08-21T02:55:36;7.55;;;5.68;;
54787;SDS011;59598;48.112;16.280;2023-08-21T02:58:08;7.60;;;5.47;;
54787;SDS011;59598;48.112;16.280;2023-08-21T03:00:40;7.97;;;6.03;;
54787;SDS011;59598;48.112;16.280;2023-08-21T03:03:16;6.32;;;5.28;;
54787;SDS011;59598;48.112;16.280;2023-08-21T03:05:48;8.85;;;5.18;;
54787;SDS011;59598;48.112;16.280;2023-08-21T03:08:21;7.45;;;5.47;;
54787;SDS011;59598;48.112;16.280;2023-08-21T03:11:00;7.90;;;5.97;;
54787;SDS011;59598;48.112;16.280;2023-08-21T03:13:34;8.73;;;6.03;;
54787;SDS011;59598;48.112;16.280;2023-08-21T03:16:06;8.20;;;5.78;;
54787;SDS011;59598;48.112;16.280;2023-08-21T03:18:53;9.57;;;6.22;;
54787;SDS011;59598;48.112;16.280;2023-08-21T03:21:31;8.05;;;5.90;;
54787;SDS011;59598;48.112;16.280;2023-08-21T03:24:05;7.47;;;5.55;;
54787;SDS011;59598;48.112;16.280;2023-08-21T03:26:42;7.50;;;5.40;;
54787;SDS011;59598;48.112;16.280;2023-08-21T03:29:14;7.45;;;5.38;;
54787;SDS011;59598;48.112;16.280;2023-08-21T03:31:49;6.93;;;5.63;;
54787;SDS011;59598;48.112;16.280;2023-08-21T03:34:24;8.25;;;5.78;;
54787;SDS011;59598;48.112;16.280;2023-08-21T03:36:56;7.20;;;5.90;;
54787;SDS011;59598;48.112;16.280;2023-08-21T03:39:30;7.95;;;5.55;;
54787;SDS011;59598;48.112;16.280;2023-08-21T03:42:02;6.65;;;5.57;;
54787;SDS011;59598;48.112;16.280;2023-08-21T03:44:37;9.43;;;6.53;;
54787;SDS011;59598;48.112;16.280;2023-08-21T03:47:16;8.52;;;6.32;;
54787;SDS011;59598;48.112;16.280;2023-08-21T03:49:47;10.45;;;6.22;;
54787;SDS011;59598;48.112;16.280;2023-08-21T03:52:22;7.70;;;6.38;;
54787;SDS011;59598;48.112;16.280;2023-08-21T03:54:54;7.85;;;5.50;;
54787;SDS011;59598;48.112;16.280;2023-08-21T03:57:30;9.07;;;6.97;;
54787;SDS011;59598;48.112;16.280;2023-08-21T04:00:07;7.13;;;5.80;;
54787;SDS011;59598;48.112;16.280;2023-08-21T04:02:39;7.40;;;5.97;;
54787;SDS011;59598;48.112;16.280;2023-08-21T04:05:12;7.78;;;6.35;;
54787;SDS011;59598;48.112;16.280;2023-08-21T04:07:43;8.18;;;6.45;;
54787;SDS011;59598;48.112;16.280;2023-08-21T04:10:15;7.25;;;5.88;;
54787;SDS011;59598;48.112;16.280;2023-08-21T04:12:47;7.93;;;6.03;;
54787;SDS011;59598;48.112;16.280;2023-08-21T04:15:19;8.40;;;6.22;;
54787;SDS011;59598;48.112;16.280;2023-08-21T04:17:58;8.05;;;5.68;;
54787;SDS011;59598;48.112;16.280;2023-08-21T04:20:35;7.03;;;5.90;;
54787;SDS011;59598;48.112;16.280;2023-08-21T04:23:09;7.50;;;6.55;;
54787;SDS011;59598;48.112;16.280;2023-08-21T04:25:43;6.32;;;5.47;;
54787;SDS011;59598;48.112;16.280;2023-08-21T04:30:48;11.98;;;5.65;;
54787;SDS011;59598;48.112;16.280;2023-08-21T04:33:21;8.90;;;6.35;;
54787;SDS011;59598;48.112;16.280;2023-08-21T04:35:56;8.05;;;5.72;;
54787;SDS011;59598;48.112;16.280;2023-08-21T04:38:35;6.85;;;5.28;;
54787;SDS011;59598;48.112;16.280;2023-08-21T04:41:08;7.40;;;5.47;;
54787;SDS011;59598;48.112;16.280;2023-08-21T04:43:43;7.22;;;5.65;;
54787;SDS011;59598;48.112;16.280;2023-08-21T04:46:20;7.57;;;6.03;;
54787;SDS011;59598;48.112;16.280;2023-08-21T04:48:52;6.90;;;5.13;;
54787;SDS011;59598;48.112;16.280;2023-08-21T04:51:28;6.93;;;5.55;;
54787;SDS011;59598;48.112;16.280;2023-08-21T04:54:05;6.55;;;4.85;;
54787;SDS011;59598;48.112;16.280;2023-08-21T04:56:42;7.68;;;6.13;;
54787;SDS011;59598;48.112;16.280;2023-08-21T04:59:14;6.85;;;5.63;;
54787;SDS011;59598;48.112;16.280;2023-08-21T05:01:47;11.23;;;5.80;;
54787;SDS011;59598;48.112;16.280;2023-08-21T05:04:20;7.45;;;5.50;;
54787;SDS011;59598;48.112;16.280;2023-08-21T05:06:54;6.97;;;5.75;;
54787;SDS011;59598;48.112;16.280;2023-08-21T05:12:03;8.40;;;5.50;;
54787;SDS011;59598;48.112;16.280;2023-08-21T05:14:38;6.22;;;5.22;;
54787;SDS011;59598;48.112;16.280;2023-08-21T05:17:12;9.48;;;5.82;;
54787;SDS011;59598;48.112;16.280;2023-08-21T05:19:46;7.82;;;5.00;;
54787;SDS011;59598;48.112;16.280;2023-08-21T05:22:20;7.32;;;5.43;;
54787;SDS011;59598;48.112;16.280;2023-08-21T05:24:59;8.25;;;6.00;;
54787;SDS011;59598;48.112;16.280;2023-08-21T05:27:43;7.43;;;5.93;;
54787;SDS011;59598;48.112;16.280;2023-08-21T05:30:15;7.97;;;5.75;;
54787;SDS011;59598;48.112;16.280;2023-08-21T05:32:46;7.30;;;5.78;;
54787;SDS011;59598;48.112;16.280;2023-08-21T05:35:24;7.75;;;5.95;;
54787;SDS011;59598;48.112;16.280;2023-08-21T05:37:55;8.13;;;5.60;;
54787;SDS011;59598;48.112;16.280;2023-08-21T05:40:27;7.95;;;6.15;;
54787;SDS011;59598;48.112;16.280;2023-08-21T05:43:03;7.75;;;5.97;;
54787;SDS011;59598;48.112;16.280;2023-08-21T05:45:37;9.15;;;6.05;;
54787;SDS011;59598;48.112;16.280;2023-08-21T05:48:11;6.65;;;5.80;;
54787;SDS011;59598;48.112;16.280;2023-08-21T05:50:43;6.82;;;5.68;;
54787;SDS011;59598;48.112;16.280;2023-08-21T05:53:16;8.80;;;6.03;;
54787;SDS011;59598;48.112;16.280;2023-08-21T05:55:51;7.43;;;5.38;;
54787;SDS011;59598;48.112;16.280;2023-08-21T05:58:27;7.57;;;5.40;;
54787;SDS011;59598;48.112;16.280;2023-08-21T06:01:02;7.30;;;5.43;;
54787;SDS011;59598;48.112;16.280;2023-08-21T06:03:36;7.78;;;5.00;;
54787;SDS011;59598;48.112;16.280;2023-08-21T06:06:09;6.15;;;5.15;;
54787;SDS011;59598;48.112;16.280;2023-08-21T06:11:30;8.73;;;5.32;;
54787;SDS011;59598;48.112;16.280;2023-08-21T06:14:08;6.80;;;5.35;;
54787;SDS011;59598;48.112;16.280;2023-08-21T06:16:44;8.10;;;5.85;;
54787;SDS011;59598;48.112;16.280;2023-08-21T06:19:15;8.57;;;5.53;;
54787;SDS011;59598;48.112;16.280;2023-08-21T06:21:47;6.18;;;5.53;;
54787;SDS011;59598;48.112;16.280;2023-08-21T06:24:19;7.38;;;5.63;;
54787;SDS011;59598;48.112;16.280;2023-08-21T06:26:51;7.93;;;5.80;;
54787;SDS011;59598;48.112;16.280;2023-08-21T06:29:25;6.38;;;5.10;;
54787;SDS011;59598;48.112;16.280;2023-08-21T06:31:57;6.30;;;4.95;;
54787;SDS011;59598;48.112;16.280;2023-08-21T06:34:29;7.13;;;5.55;;
54787;SDS011;59598;48.112;16.280;2023-08-21T06:37:00;8.10;;;5.65;;
54787;SDS011;59598;48.112;16.280;2023-08-21T06:39:33;9.10;;;5.07;;
54787;SDS011;59598;48.112;16.280;2023-08-21T06:42:07;7.22;;;5.68;;
54787;SDS011;59598;48.112;16.280;2023-08-21T06:44:39;9.13;;;6.25;;
54787;SDS011;59598;48.112;16.280;2023-08-21T06:47:11;7.07;;;5.55;;
54787;SDS011;59598;48.112;16.280;2023-08-21T06:49:44;8.25;;;5.35;;
54787;SDS011;59598;48.112;16.280;2023-08-21T06:52:21;8.10;;;6.28;;
54787;SDS011;59598;48.112;16.280;2023-08-21T06:54:53;10.00;;;5.57;;
54787;SDS011;59598;48.112;16.280;2023-08-21T06:57:30;6.85;;;5.65;;
54787;SDS011;59598;48.112;16.280;2023-08-21T07:00:04;7.15;;;5.45;;
54787;SDS011;59598;48.112;16.280;2023-08-21T07:02:40;8.02;;;5.72;;
54787;SDS011;59598;48.112;16.280;2023-08-21T07:05:18;8.15;;;5.07;;
54787;SDS011;59598;48.112;16.280;2023-08-21T07:07:52;6.55;;;5.28;;
54787;SDS011;59598;48.112;16.280;2023-08-21T07:10:25;6.82;;;5.35;;
54787;SDS011;59598;48.112;16.280;2023-08-21T07:12:58;5.80;;;5.05;;
54787;SDS011;59598;48.112;16.280;2023-08-21T07:15:36;6.18;;;5.00;;
54787;SDS011;59598;48.112;16.280;2023-08-21T07:18:12;6.13;;;4.45;;
54787;SDS011;59598;48.112;16.280;2023-08-21T07:20:51;7.15;;;5.05;;
54787;SDS011;59598;48.112;16.280;2023-08-21T07:23:26;8.18;;;5.10;;
54787;SDS011;59598;48.112;16.280;2023-08-21T07:26:06;6.32;;;4.60;;
54787;SDS011;59598;48.112;16.280;2023-08-21T07:28:38;6.72;;;4.78;;
54787;SDS011;59598;48.112;16.280;2023-08-21T07:31:10;5.13;;;4.60;;
54787;SDS011;59598;48.112;16.280;2023-08-21T07:33:42;6.72;;;4.55;;
54787;SDS011;59598;48.112;16.280;2023-08-21T07:36:18;5.97;;;4.78;;
54787;SDS011;59598;48.112;16.280;2023-08-21T07:38:50;5.68;;;4.57;;
54787;SDS011;59598;48.112;16.280;2023-08-21T07:41:24;4.93;;;4.43;;
54787;SDS011;59598;48.112;16.280;2023-08-21T07:43:56;4.80;;;4.30;;
54787;SDS011;59598;48.112;16.280;2023-08-21T07:46:30;7.20;;;4.35;;
54787;SDS011;59598;48.112;16.280;2023-08-21T07:49:02;8.65;;;5.53;;
54787;SDS011;59598;48.112;16.280;2023-08-21T07:51:41;7.13;;;5.03;;
54787;SDS011;59598;48.112;16.280;2023-08-21T07:54:18;6.22;;;4.82;;
54787;SDS011;59598;48.112;16.280;2023-08-21T07:56:52;6.63;;;4.90;;
54787;SDS011;59598;48.112;16.280;2023-08-21T07:59:24;6.05;;;4.85;;
54787;SDS011;59598;48.112;16.280;2023-08-21T08:01:56;6.05;;;4.93;;
54787;SDS011;59598;48.112;16.280;2023-08-21T08:04:28;6.70;;;5.03;;
54787;SDS011;59598;48.112;16.280;2023-08-21T08:07:02;4.72;;;4.28;;
54787;SDS011;59598;48.112;16.280;2023-08-21T08:09:34;6.32;;;4.80;;
54787;SDS011;59598;48.112;16.280;2023-08-21T08:12:08;4.93;;;4.35;;
54787;SDS011;59598;48.112;16.280;2023-08-21T08:17:18;6.35;;;4.65;;
54787;SDS011;59598;48.112;16.280;2023-08-21T08:19:52;6.57;;;5.53;;
54787;SDS011;59598;48.112;16.280;2023-08-21T08:22:23;10.00;;;5.43;;
54787;SDS011;59598;48.112;16.280;2023-08-21T08:24:58;9.15;;;5.88;;
54787;SDS011;59598;48.112;16.280;2023-08-21T08:27:34;5.57;;;5.05;;
54787;SDS011;59598;48.112;16.280;2023-08-21T08:30:08;6.63;;;4.80;;
54787;SDS011;59598;48.112;16.280;2023-08-21T08:32:43;9.65;;;5.47;;
54787;SDS011;59598;48.112;16.280;2023-08-21T08:35:18;6.22;;;5.00;;
54787;SDS011;59598;48.112;16.280;2023-08-21T08:37:55;6.20;;;5.22;;
54787;SDS011;59598;48.112;16.280;2023-08-21T08:40:30;6.03;;;5.38;;
54787;SDS011;59598;48.112;16.280;2023-08-21T08:43:13;6.97;;;5.20;;
54787;SDS011;59598;48.112;16.280;2023-08-21T08:45:47;6.95;;;5.43;;
54787;SDS011;59598;48.112;16.280;2023-08-21T08:48:22;5.00;;;4.50;;
54787;SDS011;59598;48.112;16.280;2023-08-21T08:50:57;7.10;;;5.10;;
54787;SDS011;59598;48.112;16.280;2023-08-21T08:53:32;8.30;;;4.97;;
54787;SDS011;59598;48.112;16.280;2023-08-21T08:56:07;7.28;;;5.25;;
54787;SDS011;59598;48.112;16.280;2023-08-21T08:58:42;5.57;;;4.75;;
54787;SDS011;59598;48.112;16.280;2023-08-21T09:03:47;7.32;;;5.10;;
54787;SDS011;59598;48.112;16.280;2023-08-21T09:06:23;5.97;;;4.50;;
54787;SDS011;59598;48.112;16.280;2023-08-21T09:08:57;8.25;;;4.20;;
54787;SDS011;59598;48.112;16.280;2023-08-21T09:11:29;5.57;;;4.13;;
54787;SDS011;59598;48.112;16.280;2023-08-21T09:14:04;7.68;;;4.78;;
54787;SDS011;59598;48.112;16.280;2023-08-21T09:16:36;4.90;;;4.47;;
54787;SDS011;59598;48.112;16.280;2023-08-21T09:19:09;5.65;;;4.05;;
54787;SDS011;59598;48.112;16.280;2023-08-21T09:21:41;24.05;;;4.55;;
54787;SDS011;59598;48.112;16.280;2023-08-21T09:24:18;5.75;;;4.47;;
54787;SDS011;59598;48.112;16.280;2023-08-21T09:26:51;6.13;;;4.57;;
54787;SDS011;59598;48.112;16.280;2023-08-21T09:29:32;4.85;;;4.18;;
54787;SDS011;59598;48.112;16.280;2023-08-21T09:32:12;5.53;;;4.35;;
54787;SDS011;59598;48.112;16.280;2023-08-21T09:34:50;5.82;;;4.22;;
54787;SDS011;59598;48.112;16.280;2023-08-21T09:37:30;5.00;;;4.13;;
54787;SDS011;59598;48.112;16.280;2023-08-21T09:40:04;5.32;;;4.80;;
54787;SDS011;59598;48.112;16.280;2023-08-21T09:42:41;5.38;;;4.85;;
54787;SDS011;59598;48.112;16.280;2023-08-21T09:45:13;5.18;;;4.45;;
54787;SDS011;59598;48.112;16.280;2023-08-21T09:47:47;5.15;;;4.20;;
54787;SDS011;59598;48.112;16.280;2023-08-21T09:50:21;7.13;;;4.32;;
54787;SDS011;59598;48.112;16.280;2023-08-21T09:52:53;5.40;;;4.57;;
54787;SDS011;59598;48.112;16.280;2023-08-21T09:55:27;5.80;;;4.82;;
54787;SDS011;59598;48.112;16.280;2023-08-21T09:58:05;6.05;;;4.68;;
54787;SDS011;59598;48.112;16.280;2023-08-21T10:00:40;7.18;;;5.25;;
54787;SDS011;59598;48.112;16.280;2023-08-21T10:03:25;8.77;;;5.00;;
54787;SDS011;59598;48.112;16.280;2023-08-21T10:06:00;6.45;;;5.28;;
54787;SDS011;59598;48.112;16.280;2023-08-21T10:08:37;10.30;;;5.05;;
54787;SDS011;59598;48.112;16.280;2023-08-21T10:11:17;5.60;;;5.07;;
54787;SDS011;59598;48.112;16.280;2023-08-21T10:13:53;7.55;;;5.00;;
54787;SDS011;59598;48.112;16.280;2023-08-21T10:16:26;5.10;;;4.60;;
54787;SDS011;59598;48.112;16.280;2023-08-21T10:19:07;5.53;;;4.40;;
54787;SDS011;59598;48.112;16.280;2023-08-21T10:21:41;5.13;;;4.63;;
54787;SDS011;59598;48.112;16.280;2023-08-21T10:24:26;5.50;;;4.68;;
54787;SDS011;59598;48.112;16.280;2023-08-21T10:27:11;4.63;;;4.22;;
54787;SDS011;59598;48.112;16.280;2023-08-21T10:29:46;5.53;;;4.38;;
54787;SDS011;59598;48.112;16.280;2023-08-21T10:32:34;7.53;;;4.00;;
54787;SDS011;59598;48.112;16.280;2023-08-21T10:35:22;6.18;;;4.50;;
54787;SDS011;59598;48.112;16.280;2023-08-21T10:43:44;4.85;;;4.13;;
54787;SDS011;59598;48.112;16.280;2023-08-21T10:46:21;5.30;;;4.22;;
54787;SDS011;59598;48.112;16.280;2023-08-21T10:48:53;5.78;;;4.72;;
54787;SDS011;59598;48.112;16.280;2023-08-21T10:51:24;4.38;;;3.97;;
54787;SDS011;59598;48.112;16.280;2023-08-21T10:54:10;4.63;;;4.22;;
54787;SDS011;59598;48.112;16.280;2023-08-21T10:56:43;5.72;;;4.13;;
54787;SDS011;59598;48.112;16.280;2023-08-21T10:59:21;5.20;;;4.43;;
54787;SDS011;59598;48.112;16.280;2023-08-21T11:01:55;5.95;;;4.45;;
54787;SDS011;59598;48.112;16.280;2023-08-21T11:04:29;4.50;;;4.10;;
54787;SDS011;59598;48.112;16.280;2023-08-21T11:07:11;4.32;;;4.03;;
54787;SDS011;59598;48.112;16.280;2023-08-21T11:09:51;4.45;;;4.05;;
54787;SDS011;59598;48.112;16.280;2023-08-21T11:12:26;5.03;;;4.35;;
54787;SDS011;59598;48.112;16.280;2023-08-21T11:15:00;4.30;;;3.90;;
54787;SDS011;59598;48.112;16.280;2023-08-21T11:17:34;4.32;;;3.97;;
54787;SDS011;59598;48.112;16.280;2023-08-21T11:22:39;4.70;;;4.22;;
54787;SDS011;59598;48.112;16.280;2023-08-21T11:25:10;4.18;;;3.78;;
54787;SDS011;59598;48.112;16.280;2023-08-21T11:27:45;7.97;;;4.35;;
54787;SDS011;59598;48.112;16.280;2023-08-21T11:30:24;5.53;;;4.40;;
54787;SDS011;59598;48.112;16.280;2023-08-21T11:35:41;4.30;;;3.90;;
54787;SDS011;59598;48.112;16.280;2023-08-21T11:38:16;3.90;;;3.50;;
54787;SDS011;59598;48.112;16.280;2023-08-21T11:40:56;3.80;;;3.50;;
54787;SDS011;59598;48.112;16.280;2023-08-21T11:43:39;5.10;;;4.22;;
54787;SDS011;59598;48.112;16.280;2023-08-21T11:46:15;4.40;;;4.00;;
54787;SDS011;59598;48.112;16.280;2023-08-21T11:48:55;4.10;;;3.80;;
54787;SDS011;59598;48.112;16.280;2023-08-21T11:51:26;4.50;;;4.10;;
54787;SDS011;59598;48.112;16.280;2023-08-21T11:53:59;4.38;;;3.63;;
54787;SDS011;59598;48.112;16.280;2023-08-21T11:56:36;4.20;;;3.80;;
54787;SDS011;59598;48.112;16.280;2023-08-21T11:59:20;4.63;;;4.22;;
54787;SDS011;59598;48.112;16.280;2023-08-21T12:01:56;3.85;;;3.55;;
54787;SDS011;59598;48.112;16.280;2023-08-21T12:04:28;3.92;;;3.53;;
54787;SDS011;59598;48.112;16.280;2023-08-21T12:07:00;4.20;;;3.80;;
54787;SDS011;59598;48.112;16.280;2023-08-21T12:09:39;5.68;;;3.95;;
54787;SDS011;59598;48.112;16.280;2023-08-21T12:12:22;6.15;;;4.22;;
54787;SDS011;59598;48.112;16.280;2023-08-21T12:14:56;4.07;;;3.65;;
54787;SDS011;59598;48.112;16.280;2023-08-21T12:17:30;4.10;;;3.70;;
54787;SDS011;59598;48.112;16.280;2023-08-21T12:20:03;4.38;;;3.97;;
54787;SDS011;59598;48.112;16.280;2023-08-21T12:22:42;4.43;;;4.05;;
54787;SDS011;59598;48.112;16.280;2023-08-21T12:25:13;4.60;;;3.42;;
54787;SDS011;59598;48.112;16.280;2023-08-21T12:27:49;4.40;;;4.00;;
54787;SDS011;59598;48.112;16.280;2023-08-21T12:30:24;4.55;;;4.10;;
54787;SDS011;59598;48.112;16.280;2023-08-21T12:32:58;8.05;;;4.25;;
54787;SDS011;59598;48.112;16.280;2023-08-21T12:35:30;4.07;;;3.70;;
54787;SDS011;59598;48.112;16.280;2023-08-21T12:38:09;4.25;;;3.85;;
54787;SDS011;59598;48.112;16.280;2023-08-21T12:40:43;4.03;;;3.63;;
54787;SDS011;59598;48.112;16.280;2023-08-21T12:43:14;3.95;;;3.65;;
54787;SDS011;59598;48.112;16.280;2023-08-21T12:45:46;3.70;;;3.25;;
54787;SDS011;59598;48.112;16.280;2023-08-21T12:48:20;3.70;;;3.40;;
54787;SDS011;59598;48.112;16.280;2023-08-21T12:50:55;3.50;;;3.20;;
54787;SDS011;59598;48.112;16.280;2023-08-21T12:53:27;3.70;;;2.97;;
54787;SDS011;59598;48.112;16.280;2023-08-21T12:56:03;3.53;;;3.05;;
54787;SDS011;59598;48.112;16.280;2023-08-21T12:58:35;2.97;;;2.78;;
54787;SDS011;59598;48.112;16.280;2023-08-21T13:01:06;3.55;;;2.97;;
54787;SDS011;59598;48.112;16.280;2023-08-21T13:03:43;3.55;;;2.83;;
54787;SDS011;59598;48.112;16.280;2023-08-21T13:06:18;4.47;;;3.20;;
54787;SDS011;59598;48.112;16.280;2023-08-21T13:08:52;4.15;;;3.15;;
54787;SDS011;59598;48.112;16.280;2023-08-21T13:11:25;3.40;;;3.10;;
54787;SDS011;59598;48.112;16.280;2023-08-21T13:14:00;2.75;;;2.55;;
54787;SDS011;59598;48.112;16.280;2023-08-21T13:16:34;3.60;;;3.30;;
54787;SDS011;59598;48.112;16.280;2023-08-21T13:19:06;2.97;;;2.70;;
54787;SDS011;59598;48.112;16.280;2023-08-21T13:21:37;2.58;;;2.38;;
54787;SDS011;59598;48.112;16.280;2023-08-21T13:24:11;3.33;;;3.10;;
54787;SDS011;59598;48.112;16.280;2023-08-21T13:26:45;5.18;;;2.95;;
54787;SDS011;59598;48.112;16.280;2023-08-21T13:29:19;3.00;;;2.42;;
54787;SDS011;59598;48.112;16.280;2023-08-21T13:31:51;3.22;;;2.92;;
54787;SDS011;59598;48.112;16.280;2023-08-21T13:34:22;2.97;;;2.67;;
54787;SDS011;59598;48.112;16.280;2023-08-21T13:36:54;2.85;;;2.65;;
54787;SDS011;59598;48.112;16.280;2023-08-21T13:39:26;3.70;;;2.90;;
54787;SDS011;59598;48.112;16.280;2023-08-21T13:41:59;5.28;;;2.72;;
54787;SDS011;59598;48.112;16.280;2023-08-21T13:44:33;3.38;;;2.92;;
54787;SDS011;59598;48.112;16.280;2023-08-21T13:49:37;4.95;;;3.22;;
54787;SDS011;59598;48.112;16.280;2023-08-21T13:52:13;3.00;;;2.80;;
54787;SDS011;59598;48.112;16.280;2023-08-21T13:54:49;3.17;;;2.88;;
54787;SDS011;59598;48.112;16.280;2023-08-21T13:57:20;3.08;;;2.88;;
54787;SDS011;59598;48.112;16.280;2023-08-21T13:59:52;3.20;;;2.90;;
54787;SDS011;59598;48.112;16.280;2023-08-21T14:02:23;3.20;;;2.90;;
54787;SDS011;59598;48.112;16.280;2023-08-21T14:04:58;2.83;;;2.35;;
54787;SDS011;59598;48.112;16.280;2023-08-21T14:07:33;3.20;;;3.00;;
54787;SDS011;59598;48.112;16.280;2023-08-21T14:10:09;3.58;;;2.80;;
54787;SDS011;59598;48.112;16.280;2023-08-21T14:12:41;3.30;;;3.00;;
54787;SDS011;59598;48.112;16.280;2023-08-21T14:15:13;3.65;;;3.20;;
54787;SDS011;59598;48.112;16.280;2023-08-21T14:17:49;5.95;;;3.17;;
54787;SDS011;59598;48.112;16.280;2023-08-21T14:20:20;3.17;;;2.85;;
54787;SDS011;59598;48.112;16.280;2023-08-21T14:22:54;3.00;;;2.78;;
54787;SDS011;59598;48.112;16.280;2023-08-21T14:25:28;3.20;;;2.90;;
54787;SDS011;59598;48.112;16.280;2023-08-21T14:28:07;3.38;;;3.08;;
54787;SDS011;59598;48.112;16.280;2023-08-21T14:30:42;3.35;;;2.63;;
54787;SDS011;59598;48.112;16.280;2023-08-21T14:33:13;3.80;;;3.05;;
54787;SDS011;59598;48.112;16.280;2023-08-21T14:35:45;3.38;;;3.08;;
54787;SDS011;59598;48.112;16.280;2023-08-21T14:38:16;3.22;;;2.92;;
54787;SDS011;59598;48.112;16.280;2023-08-21T14:40:48;4.45;;;3.30;;
54787;SDS011;59598;48.112;16.280;2023-08-21T14:43:27;3.25;;;2.97;;
54787;SDS011;59598;48.112;16.280;2023-08-21T14:46:03;3.67;;;2.65;;
54787;SDS011;59598;48.112;16.280;2023-08-21T14:48:34;3.60;;;3.00;;
54787;SDS011;59598;48.112;16.280;2023-08-21T14:51:07;3.43;;;3.13;;
54787;SDS011;59598;48.112;16.280;2023-08-21T14:53:41;3.22;;;2.92;;
54787;SDS011;59598;48.112;16.280;2023-08-21T14:56:17;3.50;;;3.13;;
54787;SDS011;59598;48.112;16.280;2023-08-21T14:58:49;2.42;;;2.22;;
54787;SDS011;59598;48.112;16.280;2023-08-21T15:01:28;3.33;;;3.03;;
54787;SDS011;59598;48.112;16.280;2023-08-21T15:03:59;3.35;;;2.90;;
54787;SDS011;59598;48.112;16.280;2023-08-21T15:06:34;4.57;;;2.75;;
54787;SDS011;59598;48.112;16.280;2023-08-21T15:09:09;3.40;;;3.10;;
54787;SDS011;59598;48.112;16.280;2023-08-21T15:11:43;3.80;;;2.90;;
54787;SDS011;59598;48.112;16.280;2023-08-21T15:14:20;4.18;;;2.83;;
54787;SDS011;59598;48.112;16.280;2023-08-21T15:16:51;3.70;;;3.13;;
54787;SDS011;59598;48.112;16.280;2023-08-21T15:19:25;4.60;;;3.30;;
54787;SDS011;59598;48.112;16.280;2023-08-21T15:21:59;3.67;;;3.38;;
54787;SDS011;59598;48.112;16.280;2023-08-21T15:24:35;3.50;;;3.20;;
54787;SDS011;59598;48.112;16.280;2023-08-21T15:27:09;3.80;;;3.42;;
54787;SDS011;59598;48.112;16.280;2023-08-21T15:29:40;3.63;;;3.33;;
54787;SDS011;59598;48.112;16.280;2023-08-21T15:32:13;4.40;;;3.60;;
54787;SDS011;59598;48.112;16.280;2023-08-21T15:34:48;3.80;;;3.47;;
54787;SDS011;59598;48.112;16.280;2023-08-21T15:37:22;7.45;;;4.22;;
54787;SDS011;59598;48.112;16.280;2023-08-21T15:39:56;3.60;;;3.30;;
54787;SDS011;59598;48.112;16.280;2023-08-21T15:42:29;6.55;;;3.90;;
54787;SDS011;59598;48.112;16.280;2023-08-21T15:45:04;3.83;;;3.53;;
54787;SDS011;59598;48.112;16.280;2023-08-21T15:47:37;4.57;;;4.17;;
54787;SDS011;59598;48.112;16.280;2023-08-21T15:50:11;4.10;;;3.60;;